createdAt,value
2023-04-02T00:00:29.600Z,95.20
2023-04-02T00:03:00.336Z,94.90
2023-04-02T00:05:34.938Z,94.90
2023-04-02T00:08:10.533Z,95.20
2023-04-02T00:10:49.208Z,95.40
2023-04-02T00:13:16.174Z,95.70
2023-04-02T00:15:44.746Z,96.00
2023-04-02T00:18:19.333Z,95.90
2023-04-02T00:20:48.979Z,95.90
2023-04-02T00:23:16.111Z,96.30
2023-04-02T00:25:45.663Z,95.90
2023-04-02T00:28:14.202Z,96.20
2023-04-02T00:30:54.758Z,96.40
2023-04-02T00:33:27.385Z,96.60
2023-04-02T00:35:54.982Z,96.50
2023-04-02T00:38:26.490Z,97.00
2023-04-02T00:40:55.014Z,97.30
2023-04-02T00:43:28.169Z,97.40
2023-04-02T00:45:56.614Z,97.30
2023-04-02T00:48:32.449Z,97.10
2023-04-02T00:51:14.079Z,96.70
2023-04-02T00:53:40.996Z,96.60
2023-04-02T00:56:19.281Z,96.20
2023-04-02T00:58:46.476Z,96.60
2023-04-02T01:01:22.985Z,96.40
2023-04-02T01:04:03.469Z,96.30
2023-04-02T01:06:37.638Z,96.50
2023-04-02T01:09:29.179Z,96.50
2023-04-02T01:12:07.559Z,96.00
2023-04-02T01:14:37.576Z,96.10
2023-04-02T01:17:18.709Z,96.40
2023-04-02T01:20:10.539Z,96.10
2023-04-02T01:23:06.074Z,96.40
2023-04-02T01:25:41.580Z,96.60
2023-04-02T01:28:46.076Z,96.90
2023-04-02T01:31:13.189Z,97.10
2023-04-02T01:33:40.131Z,96.70
2023-04-02T01:36:15.736Z,96.80
2023-04-02T01:38:52.178Z,96.90
2023-04-02T01:41:29.719Z,96.90
2023-04-02T01:44:01.710Z,96.80
2023-04-02T01:46:33.564Z,96.90
2023-04-02T01:49:02.758Z,96.60
2023-04-02T01:51:34.127Z,96.50
2023-04-02T01:54:04.968Z,96.30
2023-04-02T01:56:32.055Z,96.20
2023-04-02T01:58:59.335Z,96.20
2023-04-02T02:01:52.118Z,96.20
2023-04-02T02:04:19.436Z,96.50
2023-04-02T02:06:47.256Z,96.10
2023-04-02T02:09:23.309Z,96.30
2023-04-02T02:11:51.073Z,96.10
2023-04-02T02:14:20.008Z,96.00
2023-04-02T02:16:47.085Z,96.00
2023-04-02T02:19:37.243Z,95.90
2023-04-02T02:22:23.263Z,95.70
2023-04-02T02:24:50.659Z,96.00
2023-04-02T02:27:22.060Z,95.90
2023-04-02T02:30:05.000Z,95.90
2023-04-02T02:32:32.879Z,96.00
2023-04-02T02:35:07.960Z,96.30
2023-04-02T02:37:40.921Z,96.10
2023-04-02T02:40:12.754Z,96.10
2023-04-02T02:42:41.318Z,96.10
2023-04-02T02:45:13.909Z,96.10
2023-04-02T02:47:41.022Z,96.30
2023-04-02T02:50:22.213Z,96.40
2023-04-02T02:52:54.769Z,96.30
2023-04-02T02:55:24.292Z,96.20
2023-04-02T02:58:20.234Z,96.20
2023-04-02T03:00:57.628Z,96.60
2023-04-02T03:03:27.611Z,96.50
2023-04-02T03:06:02.327Z,96.60
2023-04-02T03:08:33.731Z,96.40
2023-04-02T03:11:10.895Z,96.30
2023-04-02T03:13:39.187Z,96.40
2023-04-02T03:16:18.825Z,96.20
2023-04-02T03:18:58.313Z,96.50
2023-04-02T03:21:33.472Z,96.10
2023-04-02T03:24:02.802Z,96.00
2023-04-02T03:26:37.982Z,96.10
2023-04-02T03:29:27.232Z,95.90
2023-04-02T03:32:00.007Z,95.80
2023-04-02T03:34:28.212Z,95.70
2023-04-02T03:37:11.431Z,95.60
2023-04-02T03:39:48.027Z,95.50
2023-04-02T03:42:30.054Z,95.50
2023-04-02T03:45:05.933Z,95.90
2023-04-02T03:47:38.814Z,95.70
2023-04-02T03:50:22.685Z,95.60
2023-04-02T03:52:51.218Z,95.50
2023-04-02T03:55:24.454Z,95.40
2023-04-02T03:57:54.163Z,95.50
2023-04-02T04:00:27.442Z,95.50
2023-04-02T04:03:06.288Z,94.90
2023-04-02T04:05:36.027Z,94.90
2023-04-02T04:08:06.907Z,95.00
2023-04-02T04:10:33.961Z,94.90
2023-04-02T04:13:16.003Z,95.10
2023-04-02T04:15:48.357Z,95.40
2023-04-02T04:18:38.078Z,94.90
2023-04-02T04:21:16.220Z,94.90
2023-04-02T04:23:50.822Z,95.10
2023-04-02T04:26:39.647Z,95.10
2023-04-02T04:29:19.759Z,95.10
2023-04-02T04:31:49.632Z,95.20
2023-04-02T04:34:42.404Z,95.20
2023-04-02T04:37:25.323Z,95.40
2023-04-02T04:40:00.178Z,95.50
2023-04-02T04:42:29.185Z,95.40
2023-04-02T04:45:07.042Z,95.40
2023-04-02T04:47:37.114Z,95.60
2023-04-02T04:50:28.280Z,95.50
2023-04-02T04:52:55.758Z,95.20
2023-04-02T04:55:31.337Z,95.00
2023-04-02T04:58:04.205Z,95.00
2023-04-02T05:00:55.464Z,94.40
2023-04-02T05:03:35.993Z,94.50
2023-04-02T05:06:09.979Z,94.50
2023-04-02T05:08:43.148Z,94.60
2023-04-02T05:11:16.308Z,94.70
2023-04-02T05:13:55.003Z,94.60
2023-04-02T05:16:43.372Z,94.90
2023-04-02T05:19:32.880Z,95.20
2023-04-02T05:22:06.424Z,95.40
2023-04-02T05:25:10.029Z,95.50
2023-04-02T05:27:42.273Z,95.00
2023-04-02T05:30:25.586Z,95.50
2023-04-02T05:33:05.212Z,95.50
2023-04-02T05:35:36.786Z,95.40
2023-04-02T05:38:04.456Z,95.40
2023-04-02T05:40:41.026Z,95.60
2023-04-02T05:43:09.951Z,95.20
2023-04-02T05:45:41.440Z,94.70
2023-04-02T05:48:27.657Z,94.10
2023-04-02T05:50:56.767Z,94.20
2023-04-02T05:53:54.305Z,94.20
2023-04-02T05:56:39.343Z,93.80
2023-04-02T05:59:23.464Z,93.60
2023-04-02T06:02:00.666Z,93.40
2023-04-02T06:04:48.888Z,93.40
2023-04-02T06:07:20.300Z,93.10
2023-04-02T06:10:15.626Z,93.90
2023-04-02T06:12:52.471Z,92.90
2023-04-02T06:15:22.032Z,93.20
2023-04-02T06:17:53.454Z,93.00
2023-04-02T06:20:21.079Z,92.40
2023-04-02T06:23:05.007Z,92.20
2023-04-02T06:25:35.500Z,92.60
2023-04-02T06:28:04.987Z,92.10
2023-04-02T06:30:33.175Z,92.60
2023-04-02T06:33:01.353Z,91.70
2023-04-02T06:35:29.837Z,91.90
2023-04-02T06:38:01.522Z,91.60
2023-04-02T06:40:50.600Z,91.00
2023-04-02T06:43:42.328Z,91.50
2023-04-02T06:46:32.100Z,91.80
2023-04-02T06:49:29.297Z,91.30
2023-04-02T06:52:01.569Z,91.10
2023-04-02T06:54:30.061Z,91.70
2023-04-02T06:57:01.108Z,90.10
2023-04-02T06:59:34.495Z,90.50
2023-04-02T07:02:06.861Z,91.20
2023-04-02T07:04:34.477Z,91.00
2023-04-02T07:07:02.419Z,90.30
2023-04-02T07:09:33.409Z,90.90
2023-04-02T07:12:02.830Z,90.20
2023-04-02T07:14:30.083Z,90.30
2023-04-02T07:16:57.162Z,90.40
2023-04-02T07:19:24.152Z,90.50
2023-04-02T07:21:55.537Z,90.00
2023-04-02T07:24:24.215Z,90.20
2023-04-02T07:26:51.550Z,89.60
2023-04-02T07:29:20.065Z,90.20
2023-04-02T07:31:47.109Z,90.60
2023-04-02T07:34:14.138Z,90.30
2023-04-02T07:36:41.885Z,90.40
2023-04-02T07:39:08.902Z,90.30
2023-04-02T07:41:53.122Z,90.80
2023-04-02T07:44:20.137Z,90.10
2023-04-02T07:46:47.136Z,90.70
2023-04-02T07:49:14.162Z,90.80
2023-04-02T07:51:41.330Z,90.20
2023-04-02T07:54:10.447Z,90.10
2023-04-02T07:56:37.628Z,90.70
2023-04-02T07:59:05.128Z,90.60
2023-04-02T08:01:38.030Z,90.60
2023-04-02T08:04:05.906Z,90.80
2023-04-02T08:06:32.880Z,90.50
2023-04-02T08:08:59.849Z,90.70
2023-04-02T08:11:27.179Z,90.50
2023-04-02T08:13:54.200Z,90.60
2023-04-02T08:16:21.422Z,91.10
2023-04-02T08:18:48.429Z,90.30
2023-04-02T08:21:16.479Z,91.20
2023-04-02T08:23:43.733Z,90.20
2023-04-02T08:26:10.680Z,90.80
2023-04-02T08:28:37.727Z,90.70
2023-04-02T08:31:05.087Z,90.90
2023-04-02T08:33:32.217Z,90.40
2023-04-02T08:35:59.422Z,90.50
2023-04-02T08:38:26.694Z,89.10
2023-04-02T08:40:56.023Z,89.30
2023-04-02T08:43:29.035Z,89.70
2023-04-02T08:46:01.923Z,85.90
2023-04-02T08:48:28.883Z,89.50
2023-04-02T08:50:57.381Z,90.50
2023-04-02T08:53:35.840Z,87.60
2023-04-02T08:56:08.694Z,84.50
2023-04-02T08:58:47.276Z,85.30
2023-04-02T09:01:43.840Z,86.60
2023-04-02T09:04:15.532Z,84.80
2023-04-02T09:06:44.019Z,86.70
2023-04-02T09:09:12.614Z,90.10
2023-04-02T09:11:48.938Z,89.90
2023-04-02T09:14:20.706Z,88.70
2023-04-02T09:16:53.234Z,83.80
2023-04-02T09:19:26.005Z,82.30
2023-04-02T09:22:17.677Z,85.00
2023-04-02T09:24:44.686Z,77.50
2023-04-02T09:27:22.650Z,82.00
2023-04-02T09:30:06.840Z,74.90
2023-04-02T09:32:54.706Z,76.50
2023-04-02T09:35:32.734Z,77.70
2023-04-02T09:38:35.468Z,72.50
2023-04-02T09:41:02.481Z,68.80
2023-04-02T09:43:37.144Z,71.80
2023-04-02T09:46:20.837Z,68.50
2023-04-02T09:48:53.416Z,69.80
2023-04-02T09:51:23.058Z,65.30
2023-04-02T09:53:51.924Z,64.90
2023-04-02T09:56:19.726Z,65.20
2023-04-02T09:58:47.475Z,74.40
2023-04-02T10:01:34.640Z,77.20
2023-04-02T10:04:03.714Z,63.30
2023-04-02T10:06:31.187Z,68.60
2023-04-02T10:08:58.229Z,66.20
2023-04-02T10:11:43.747Z,65.50
2023-04-02T10:14:22.032Z,63.60
2023-04-02T10:16:52.550Z,61.50
2023-04-02T10:19:56.355Z,70.60
2023-04-02T10:22:23.608Z,59.30
2023-04-02T10:24:51.016Z,53.40
2023-04-02T10:27:18.128Z,67.40
2023-04-02T10:29:54.543Z,56.80
2023-04-02T10:32:53.711Z,59.30
2023-04-02T10:35:35.861Z,51.90
2023-04-02T10:38:24.918Z,48.70
2023-04-02T10:40:59.734Z,51.60
2023-04-02T10:44:06.154Z,51.00
2023-04-02T10:46:45.354Z,46.60
2023-04-02T10:49:33.586Z,45.20
2023-04-02T10:52:36.304Z,39.00
2023-04-02T10:55:06.339Z,36.40
2023-04-02T10:57:33.334Z,36.40
2023-04-02T11:00:19.041Z,29.60
2023-04-02T11:03:03.124Z,30.20
2023-04-02T11:05:37.594Z,24.60
2023-04-02T11:08:18.990Z,28.90
2023-04-02T11:10:49.112Z,33.00
2023-04-02T11:13:40.860Z,27.40
2023-04-02T11:16:08.046Z,22.30
2023-04-02T11:18:38.889Z,32.90
2023-04-02T11:21:06.983Z,31.00
2023-04-02T11:23:53.605Z,23.60
2023-04-02T11:26:41.526Z,22.60
2023-04-02T11:29:16.026Z,23.40
2023-04-02T11:31:43.117Z,23.00
2023-04-02T11:34:32.762Z,28.00
2023-04-02T11:37:00.428Z,24.30
2023-04-02T11:39:46.494Z,20.60
2023-04-02T11:42:19.635Z,18.30
2023-04-02T11:44:46.675Z,18.40
2023-04-02T11:47:21.046Z,24.00
2023-04-02T11:49:57.760Z,18.60
2023-04-02T11:52:32.278Z,16.80
2023-04-02T11:55:24.564Z,17.90
2023-04-02T11:58:17.881Z,20.30
2023-04-02T12:01:19.749Z,24.80
2023-04-02T12:03:52.650Z,21.00
2023-04-02T12:06:42.531Z,13.40
2023-04-02T12:09:18.836Z,16.60
2023-04-02T12:11:45.876Z,13.00
2023-04-02T12:14:46.036Z,18.80
2023-04-02T12:17:32.120Z,14.60
2023-04-02T12:20:09.756Z,16.50
2023-04-02T12:22:39.985Z,11.90
2023-04-02T12:25:33.938Z,14.40
2023-04-02T12:28:10.259Z,12.90
2023-04-02T12:30:38.097Z,11.80
2023-04-02T12:33:20.586Z,20.80
2023-04-02T12:35:47.995Z,11.20
2023-04-02T12:38:23.239Z,14.90
2023-04-02T12:40:57.053Z,15.70
2023-04-02T12:43:28.456Z,10.50
2023-04-02T12:45:56.645Z,9.80
2023-04-02T12:48:24.083Z,12.20
2023-04-02T12:50:51.143Z,17.40
2023-04-02T12:53:26.474Z,19.50
2023-04-02T12:55:53.587Z,13.70
2023-04-02T12:58:27.634Z,12.30
2023-04-02T13:01:19.376Z,17.10
2023-04-02T13:04:09.105Z,14.80
2023-04-02T13:06:36.363Z,10.30
2023-04-02T13:09:05.662Z,11.00
2023-04-02T13:11:37.004Z,12.50
2023-04-02T13:14:05.209Z,10.00
2023-04-02T13:16:35.183Z,18.80
2023-04-02T13:19:16.953Z,16.50
2023-04-02T13:21:44.799Z,7.90
2023-04-02T13:24:22.351Z,11.80
2023-04-02T13:26:50.108Z,7.50
2023-04-02T13:29:32.965Z,11.50
2023-04-02T13:32:12.343Z,8.60
2023-04-02T13:34:39.305Z,8.60
2023-04-02T13:37:06.461Z,10.90
2023-04-02T13:39:33.440Z,14.00
2023-04-02T13:42:04.040Z,12.30
2023-04-02T13:44:32.039Z,9.00
2023-04-02T13:46:59.197Z,9.30
2023-04-02T13:49:26.431Z,11.50
2023-04-02T13:51:54.954Z,12.00
2023-04-02T13:54:37.945Z,7.80
2023-04-02T13:57:04.982Z,5.50
2023-04-02T13:59:31.951Z,12.20
2023-04-02T14:02:03.202Z,8.70
2023-04-02T14:04:33.177Z,5.70
2023-04-02T14:07:30.817Z,6.50
2023-04-02T14:10:08.217Z,6.70
2023-04-02T14:12:57.631Z,5.80
2023-04-02T14:15:46.651Z,2.10
2023-04-02T14:18:41.766Z,2.50
2023-04-02T14:21:21.444Z,1.90
2023-04-02T14:24:14.536Z,3.80
2023-04-02T14:27:16.826Z,6.10
2023-04-02T14:30:05.174Z,6.10
2023-04-02T14:32:37.530Z,6.40
2023-04-02T14:35:29.455Z,8.40
2023-04-02T14:38:31.156Z,7.80
2023-04-02T14:41:08.879Z,6.00
2023-04-02T14:43:44.531Z,3.10
2023-04-02T14:46:11.836Z,4.30
2023-04-02T14:48:56.760Z,6.70
2023-04-02T14:51:55.000Z,3.80
2023-04-02T14:54:45.314Z,6.80
2023-04-02T14:57:31.074Z,4.40
2023-04-02T15:00:16.791Z,3.10
2023-04-02T15:02:54.054Z,2.90
2023-04-02T15:05:56.705Z,4.40
2023-04-02T15:08:32.102Z,4.60
2023-04-02T15:11:10.218Z,5.60
2023-04-02T15:13:39.007Z,3.60
2023-04-02T15:16:13.940Z,4.00
2023-04-02T15:18:40.943Z,6.40
2023-04-02T15:21:19.900Z,3.70
2023-04-02T15:23:51.923Z,3.30
2023-04-02T15:26:22.035Z,5.60
2023-04-02T15:29:11.123Z,6.30
2023-04-02T15:31:44.101Z,6.90
2023-04-02T15:34:21.820Z,7.30
2023-04-02T15:37:12.361Z,5.80
2023-04-02T15:39:50.927Z,3.80
2023-04-02T15:42:43.501Z,4.30
2023-04-02T15:45:22.719Z,1.00
2023-04-02T15:48:02.630Z,1.30
2023-04-02T15:50:39.864Z,2.00
2023-04-02T15:53:23.905Z,1.40
2023-04-02T15:55:57.780Z,1.00
2023-04-02T15:58:42.340Z,3.70
2023-04-02T16:01:23.060Z,4.70
2023-04-02T16:04:01.706Z,2.50
2023-04-02T16:06:49.560Z,4.40
2023-04-02T16:09:35.712Z,5.40
2023-04-02T16:12:14.106Z,3.10
2023-04-02T16:14:41.790Z,4.50
2023-04-02T16:17:24.477Z,3.90
2023-04-02T16:19:57.210Z,4.10
2023-04-02T16:22:29.146Z,4.40
2023-04-02T16:25:10.824Z,3.50
2023-04-02T16:27:43.300Z,2.70
2023-04-02T16:30:33.953Z,2.00
2023-04-02T16:33:07.079Z,1.80
2023-04-02T16:35:43.154Z,1.40
2023-04-02T16:38:22.662Z,3.10
2023-04-02T16:41:23.133Z,4.30
2023-04-02T16:44:02.214Z,2.50
2023-04-02T16:46:41.063Z,3.70
2023-04-02T16:49:20.415Z,2.90
2023-04-02T16:51:56.970Z,3.80
2023-04-02T16:54:39.502Z,2.60
2023-04-02T16:57:51.351Z,2.50
2023-04-02T17:00:31.063Z,2.40
2023-04-02T17:03:15.146Z,3.00
2023-04-02T17:06:26.584Z,5.20
2023-04-02T17:09:08.443Z,4.90
2023-04-02T17:11:58.555Z,6.00
2023-04-02T17:14:30.807Z,5.70
2023-04-02T17:17:02.627Z,5.30
2023-04-02T17:19:30.851Z,5.80
2023-04-02T17:22:07.873Z,6.20
2023-04-02T17:24:40.698Z,5.20
2023-04-02T17:27:26.419Z,3.50
2023-04-02T17:29:55.283Z,3.60
2023-04-02T17:32:25.509Z,4.90
2023-04-02T17:34:52.594Z,4.40
2023-04-02T17:37:35.148Z,6.90
2023-04-02T17:40:14.095Z,5.60
2023-04-02T17:42:45.606Z,6.10
2023-04-02T17:45:24.615Z,6.70
2023-04-02T17:48:29.243Z,7.80
2023-04-02T17:51:05.970Z,8.50
2023-04-02T17:53:51.696Z,6.70
2023-04-02T17:56:38.981Z,7.20
2023-04-02T17:59:33.404Z,7.90
2023-04-02T18:02:06.469Z,8.70
2023-04-02T18:04:46.242Z,8.70
2023-04-02T18:07:21.551Z,8.40
2023-04-02T18:10:02.926Z,9.80
2023-04-02T18:12:45.042Z,9.40
2023-04-02T18:15:35.970Z,14.40
2023-04-02T18:18:17.577Z,26.80
2023-04-02T18:21:25.925Z,26.70
2023-04-02T18:24:29.980Z,33.40
2023-04-02T18:27:08.671Z,35.40
2023-04-02T18:30:13.875Z,34.60
2023-04-02T18:33:13.103Z,37.50
2023-04-02T18:35:47.515Z,39.40
2023-04-02T18:38:20.007Z,37.40
2023-04-02T18:41:03.017Z,38.60
2023-04-02T18:43:52.364Z,40.30
2023-04-02T18:46:29.149Z,36.50
2023-04-02T18:48:59.387Z,39.80
2023-04-02T18:51:27.236Z,43.00
2023-04-02T18:54:14.365Z,47.20
2023-04-02T18:56:41.393Z,44.50
2023-04-02T18:59:29.834Z,37.90
2023-04-02T19:01:56.832Z,41.40
2023-04-02T19:04:27.782Z,40.30
2023-04-02T19:07:04.817Z,43.70
2023-04-02T19:09:35.272Z,47.30
2023-04-02T19:12:04.025Z,44.10
2023-04-02T19:14:31.246Z,44.70
2023-04-02T19:17:36.181Z,46.50
2023-04-02T19:20:28.077Z,49.20
2023-04-02T19:23:24.732Z,49.10
2023-04-02T19:26:09.182Z,49.10
2023-04-02T19:28:59.053Z,52.10
2023-04-02T19:31:51.291Z,52.00
2023-04-02T19:34:41.092Z,52.60
2023-04-02T19:37:35.777Z,53.60
2023-04-02T19:40:19.770Z,51.30
2023-04-02T19:42:51.568Z,50.50
2023-04-02T19:45:28.783Z,53.80
2023-04-02T19:47:56.289Z,49.30
2023-04-02T19:50:23.286Z,51.20
2023-04-02T19:52:50.274Z,55.80
2023-04-02T19:55:17.340Z,55.40
2023-04-02T19:57:44.338Z,56.10
2023-04-02T20:00:15.169Z,56.40
2023-04-02T20:02:42.154Z,57.90
2023-04-02T20:05:09.555Z,58.60
2023-04-02T20:07:36.607Z,57.60
2023-04-02T20:10:03.566Z,58.60
2023-04-02T20:12:30.607Z,59.40
2023-04-02T20:14:57.542Z,59.80
2023-04-02T20:17:24.655Z,59.50
2023-04-02T20:19:51.662Z,60.30
2023-04-02T20:22:19.256Z,60.90
2023-04-02T20:24:46.402Z,61.80
2023-04-02T20:27:13.362Z,60.30
2023-04-02T20:29:42.446Z,63.40
2023-04-02T20:32:10.173Z,64.30
2023-04-02T20:34:37.161Z,65.10
2023-04-02T20:37:04.138Z,65.70
2023-04-02T20:39:31.048Z,63.10
2023-04-02T20:42:02.389Z,63.10
2023-04-02T20:44:30.007Z,66.60
2023-04-02T20:46:57.061Z,63.20
2023-04-02T20:49:23.978Z,63.20
2023-04-02T20:51:51.130Z,63.30
2023-04-02T20:54:18.117Z,64.20
2023-04-02T20:56:45.509Z,68.70
2023-04-02T20:59:12.448Z,66.60
2023-04-02T21:01:39.467Z,69.10
2023-04-02T21:04:06.446Z,66.40
2023-04-02T21:06:35.173Z,70.70
2023-04-02T21:09:03.219Z,67.70
2023-04-02T21:11:30.461Z,69.90
2023-04-02T21:13:57.684Z,70.30
2023-04-02T21:16:28.496Z,71.60
2023-04-02T21:18:56.228Z,68.80
2023-04-02T21:21:23.252Z,67.80
2023-04-02T21:23:55.595Z,69.90
2023-04-02T21:26:22.626Z,67.50
2023-04-02T21:28:49.608Z,65.80
2023-04-02T21:31:20.437Z,63.50
2023-04-02T21:33:48.940Z,65.80
2023-04-02T21:36:18.181Z,66.20
2023-04-02T21:38:46.538Z,64.60
2023-04-02T21:41:18.149Z,64.10
2023-04-02T21:43:46.248Z,65.00
2023-04-02T21:46:13.301Z,64.00
2023-04-02T21:48:41.935Z,64.10
2023-04-02T21:51:14.169Z,65.80
2023-04-02T21:53:41.310Z,66.20
2023-04-02T21:56:10.169Z,65.10
2023-04-02T21:58:37.235Z,65.00
2023-04-02T22:01:07.007Z,64.40
2023-04-02T22:03:36.011Z,63.10
2023-04-02T22:06:17.283Z,63.60
2023-04-02T22:08:44.646Z,64.40
2023-04-02T22:11:12.558Z,63.20
2023-04-02T22:13:39.925Z,63.70
2023-04-02T22:16:08.605Z,63.90
2023-04-02T22:18:35.776Z,63.90
2023-04-02T22:21:02.729Z,64.60
2023-04-02T22:23:29.829Z,64.10
2023-04-02T22:25:57.716Z,63.70
2023-04-02T22:28:24.950Z,63.30
2023-04-02T22:30:51.916Z,64.50
2023-04-02T22:33:19.093Z,64.40
2023-04-02T22:35:49.683Z,62.20
2023-04-02T22:38:16.666Z,61.80
2023-04-02T22:40:43.601Z,61.80
2023-04-02T22:43:10.774Z,62.10
2023-04-02T22:45:37.803Z,60.70
2023-04-02T22:48:04.831Z,60.30
2023-04-02T22:50:32.122Z,58.90
2023-04-02T22:52:59.041Z,58.80
2023-04-02T22:55:26.805Z,59.00
2023-04-02T22:57:53.845Z,58.80
2023-04-02T23:00:21.110Z,60.10
2023-04-02T23:02:48.087Z,58.80
2023-04-02T23:05:15.166Z,59.40
2023-04-02T23:07:42.333Z,59.10
2023-04-02T23:10:09.646Z,60.00
2023-04-02T23:12:36.698Z,58.40
2023-04-02T23:15:05.686Z,58.10
2023-04-02T23:17:32.873Z,60.00
2023-04-02T23:19:59.902Z,60.00
2023-04-02T23:22:26.867Z,58.70
2023-04-02T23:24:54.740Z,59.20
2023-04-02T23:27:22.398Z,59.20
2023-04-02T23:29:49.922Z,60.00
2023-04-02T23:32:17.214Z,60.50
2023-04-02T23:34:44.183Z,60.50
2023-04-02T23:37:11.191Z,61.20
2023-04-02T23:39:38.152Z,62.10
2023-04-02T23:42:05.239Z,60.70
2023-04-02T23:44:32.380Z,62.80
2023-04-02T23:46:59.862Z,63.50
2023-04-02T23:49:27.276Z,63.10
2023-04-02T23:51:54.287Z,62.60
2023-04-02T23:54:21.334Z,64.50
2023-04-02T23:56:48.339Z,65.20
2023-04-02T23:59:15.705Z,65.50
